Time;durP1;ratioP1;P1;durP2;ratioP2;P2;SDS_P1;SDS_P2;PMS_P1;PMS_P2;Temp;Humidity;BMP_temperature;BMP_pressure;BME280_temperature;BME280_humidity;BME280_pressure;Samples;Min_cycle;Max_cycle;Signal;HPM_P1;HPM_P2
2021/09/18 00:03:37;;;;;;;2.80;1.93;;;;;;;13.85;96.93;100271.00;5165945;56;21177;-81
2021/09/18 00:08:43;;;;;;;3.27;1.90;;;;;;;13.83;97.40;100271.63;5165786;56;21248;-81
2021/09/18 00:13:49;;;;;;;2.60;2.10;;;;;;;13.81;97.04;100274.44;5165659;56;21252;-78
2021/09/18 00:18:54;;;;;;;2.37;1.80;;;;;;;13.84;96.93;100276.80;5165560;56;21712;-78
2021/09/18 00:24:00;;;;;;;3.70;2.10;;;;;;;13.84;96.98;100272.81;5165895;56;21182;-80
2021/09/18 00:29:07;;;;;;;4.20;2.20;;;;;;;13.83;96.87;100275.13;5174806;56;21154;-78
2021/09/18 00:34:13;;;;;;;2.33;2.23;;;;;;;13.81;97.08;100281.08;5174693;56;21166;-79
2021/09/18 00:39:18;;;;;;;2.03;1.90;;;;;;;13.81;97.23;100277.58;5144592;57;21582;-80
2021/09/18 00:44:27;;;;;;;5.27;3.13;;;;;;;13.79;97.75;100275.06;5120739;57;21167;-78
2021/09/18 00:49:32;;;;;;;3.40;2.80;;;;;;;13.81;97.19;100275.77;5078815;57;21220;-80
2021/09/18 00:54:38;;;;;;;3.47;2.70;;;;;;;13.79;97.73;100272.41;5078800;57;21196;-78
2021/09/18 00:59:45;;;;;;;3.50;2.10;;;;;;;13.76;97.79;100271.86;5078941;57;21232;-80
2021/09/18 01:04:51;;;;;;;9.00;2.80;;;;;;;13.76;98.07;100271.86;5078658;57;21112;-80
2021/09/18 01:09:58;;;;;;;2.50;2.40;;;;;;;13.72;98.07;100271.33;5078792;57;21762;-79
2021/09/18 01:15:04;;;;;;;4.07;2.77;;;;;;;13.70;98.07;100266.64;5065982;57;21171;-79
2021/09/18 01:20:11;;;;;;;3.43;2.57;;;;;;;13.68;98.86;100268.12;5078643;57;21823;-81
2021/09/18 01:25:17;;;;;;;4.60;2.97;;;;;;;13.67;98.48;100265.11;5078623;57;21225;-78
2021/09/18 01:30:27;;;;;;;4.00;2.23;;;;;;;13.66;98.39;100253.30;5078556;57;21164;-80
2021/09/18 01:35:33;;;;;;;2.80;2.60;;;;;;;13.66;98.58;100262.59;5099663;57;21158;-80
2021/09/18 01:40:43;;;;;;;2.40;2.30;;;;;;;13.65;98.51;100259.09;5157607;57;21195;-80
2021/09/18 01:45:49;;;;;;;5.43;2.43;;;;;;;13.64;98.53;100255.26;5156945;57;21187;-78
2021/09/18 01:50:58;;;;;;;3.13;2.67;;;;;;;13.64;98.69;100248.13;5156435;57;21158;-80
2021/09/18 01:56:02;;;;;;;3.23;2.97;;;;;;;13.63;99.33;100245.12;5156191;57;21175;-81
2021/09/18 02:01:08;;;;;;;2.70;2.50;;;;;;;13.61;98.88;100247.08;5156434;57;21174;-78
2021/09/18 02:06:16;;;;;;;3.13;2.80;;;;;;;13.60;99.02;100245.89;5156396;57;21546;-80
2021/09/18 02:11:22;;;;;;;2.90;2.70;;;;;;;13.57;99.30;100245.72;5156475;57;21162;-78
2021/09/18 02:16:28;;;;;;;2.57;2.37;;;;;;;13.55;99.37;100248.16;5156481;57;21174;-79
2021/09/18 02:21:33;;;;;;;6.87;3.00;;;;;;;13.54;99.49;100242.02;5152565;57;21612;-78
2021/09/18 02:26:40;;;;;;;2.87;2.60;;;;;;;13.52;100.00;100243.97;5145009;57;21262;-78
2021/09/18 02:31:46;;;;;;;9.57;2.40;;;;;;;13.52;99.47;100241.80;5145104;57;21190;-77
2021/09/18 02:36:51;;;;;;;2.33;2.00;;;;;;;13.52;99.83;100240.48;5147721;57;21256;-78
2021/09/18 02:41:57;;;;;;;1.73;1.63;;;;;;;13.50;99.74;100243.27;5149882;57;21197;-79
2021/09/18 02:47:03;;;;;;;2.20;2.07;;;;;;;13.49;99.75;100240.27;5158406;56;21233;-78
2021/09/18 02:52:10;;;;;;;2.47;1.80;;;;;;;13.52;99.69;100236.48;5163126;56;21253;-81
2021/09/18 02:57:15;;;;;;;2.20;1.57;;;;;;;13.49;99.90;100234.12;5164254;56;21130;-79
2021/09/18 03:02:21;;;;;;;5.70;1.40;;;;;;;13.51;100.00;100233.48;5163763;56;21457;-77
2021/09/18 03:07:28;;;;;;;1.83;1.40;;;;;;;13.51;99.74;100229.02;5104896;56;21166;-78
2021/09/18 03:12:34;;;;;;;1.83;1.70;;;;;;;13.49;99.73;100231.45;5147299;56;21563;-77
2021/09/18 03:17:39;;;;;;;1.20;1.20;;;;;;;13.50;99.75;100230.48;5110476;56;21188;-78
2021/09/18 03:22:47;;;;;;;3.27;1.50;;;;;;;13.53;99.49;100228.38;5134759;56;21494;-77
2021/09/18 03:27:52;;;;;;;1.40;1.30;;;;;;;13.53;99.49;100223.55;5089645;57;21157;-77
2021/09/18 03:32:59;;;;;;;3.40;1.10;;;;;;;13.51;99.39;100225.02;5089887;57;21174;-77
2021/09/18 03:38:05;;;;;;;1.13;1.10;;;;;;;13.47;99.53;100221.47;5150913;57;21154;-78
2021/09/18 03:43:11;;;;;;;1.00;1.00;;;;;;;13.46;99.76;100221.12;5169107;57;21162;-78
2021/09/18 03:48:16;;;;;;;0.70;0.70;;;;;;;13.46;99.79;100223.28;5193768;56;21178;-77
2021/09/18 03:53:22;;;;;;;4.03;0.90;;;;;;;13.49;99.67;100219.02;5210542;56;21079;-77
2021/09/18 03:58:28;;;;;;;0.80;0.80;;;;;;;13.50;99.76;100223.34;5213080;56;21151;-78
2021/09/18 04:03:34;;;;;;;0.57;0.57;;;;;;;13.45;99.69;100226.08;5210055;56;21162;-77
2021/09/18 04:08:40;;;;;;;0.50;0.50;;;;;;;13.40;100.00;100219.89;5202373;56;21083;-78
2021/09/18 04:13:47;;;;;;;0.70;0.70;;;;;;;13.36;100.00;100218.01;5168405;56;21099;-79
2021/09/18 04:18:53;;;;;;;0.90;0.90;;;;;;;13.35;100.00;100216.83;5134641;56;21114;-78
2021/09/18 04:23:58;;;;;;;0.67;0.67;;;;;;;13.35;100.00;100218.98;5215520;56;21159;-78
2021/09/18 04:29:04;;;;;;;0.83;0.83;;;;;;;13.32;100.00;100217.94;5218054;56;21627;-77
2021/09/18 04:34:10;;;;;;;1.10;1.10;;;;;;;13.29;100.00;100222.73;5199043;56;21091;-78
2021/09/18 04:39:18;;;;;;;1.17;1.17;;;;;;;13.30;100.00;100220.39;5211904;56;22391;-78
2021/09/18 04:44:23;;;;;;;2.40;1.30;;;;;;;13.30;100.00;100221.23;5203516;56;21122;-77
2021/09/18 04:49:29;;;;;;;1.97;1.87;;;;;;;13.30;100.00;100228.36;5203817;56;21143;-78
2021/09/18 04:54:36;;;;;;;3.00;1.77;;;;;;;13.31;100.00;100233.53;5203516;56;21154;-78
2021/09/18 04:59:41;;;;;;;2.40;2.27;;;;;;;13.30;100.00;100239.82;5214643;56;21189;-78
2021/09/18 05:04:47;;;;;;;2.53;2.33;;;;;;;13.27;100.00;100232.66;5114088;56;21631;-78
2021/09/18 05:09:53;;;;;;;2.33;2.23;;;;;;;13.23;100.00;100235.23;5089420;57;21189;-79
2021/09/18 05:14:59;;;;;;;4.20;3.77;;;;;;;13.22;100.00;100250.83;5086771;57;21208;-78
2021/09/18 05:20:06;;;;;;;3.33;3.03;;;;;;;13.23;100.00;100248.03;5077214;57;22434;-78
2021/09/18 05:25:12;;;;;;;4.23;3.17;;;;;;;13.26;100.00;100249.56;5081122;57;21193;-78
2021/09/18 05:30:18;;;;;;;5.83;4.00;;;;;;;13.23;100.00;100250.69;5101858;57;21623;-79
2021/09/18 05:35:24;;;;;;;3.10;2.90;;;;;;;13.22;100.00;100252.16;5108099;57;21214;-78
2021/09/18 05:40:30;;;;;;;2.70;2.50;;;;;;;13.23;100.00;100249.36;5116137;56;21221;-75
2021/09/18 05:45:36;;;;;;;3.23;3.00;;;;;;;13.27;100.00;100257.40;5089335;57;21288;-76
2021/09/18 05:50:42;;;;;;;4.63;2.63;;;;;;;13.31;100.00;100260.09;5140918;56;21225;-77
2021/09/18 05:55:48;;;;;;;2.97;2.50;;;;;;;13.35;100.00;100258.83;5140711;56;21147;-80
2021/09/18 06:00:54;;;;;;;3.07;2.77;;;;;;;13.36;100.00;100256.53;5140959;56;21513;-79
2021/09/18 06:05:59;;;;;;;3.30;2.80;;;;;;;13.40;100.00;100260.23;5138056;56;21576;-80
2021/09/18 06:11:06;;;;;;;4.17;3.77;;;;;;;13.44;100.00;100260.30;5142493;56;21209;-79
2021/09/18 06:16:12;;;;;;;4.00;3.50;;;;;;;13.44;100.00;100267.78;5141586;56;21185;-81
2021/09/18 06:21:18;;;;;;;7.40;5.30;;;;;;;13.44;100.00;100270.92;5140382;56;21154;-81
2021/09/18 06:26:24;;;;;;;6.67;5.73;;;;;;;13.44;100.00;100270.92;5139932;56;21094;-80
2021/09/18 06:31:30;;;;;;;10.07;6.53;;;;;;;13.50;100.00;100270.34;5140340;56;21581;-80
2021/09/18 06:36:36;;;;;;;9.03;7.73;;;;;;;13.58;100.00;100273.12;5140654;56;21694;-82
2021/09/18 06:41:42;;;;;;;10.73;8.13;;;;;;;13.56;100.00;100273.27;5141192;56;21151;-81
2021/09/18 06:46:48;;;;;;;11.60;8.80;;;;;;;13.58;100.00;100284.59;5140940;56;21737;-81
2021/09/18 06:51:53;;;;;;;12.57;10.10;;;;;;;13.68;100.00;100289.38;5142048;56;21212;-81
2021/09/18 06:56:59;;;;;;;11.07;9.63;;;;;;;13.78;100.00;100288.01;5141636;56;21227;-81
2021/09/18 07:02:06;;;;;;;14.03;8.57;;;;;;;13.85;100.00;100286.45;5142479;56;22265;-81
2021/09/18 07:07:11;;;;;;;14.97;8.67;;;;;;;13.88;100.00;100286.17;5142738;56;21588;-80
2021/09/18 07:12:17;;;;;;;10.90;7.83;;;;;;;13.92;100.00;100294.67;5143364;56;21237;-79
2021/09/18 07:17:23;;;;;;;9.10;7.57;;;;;;;13.94;100.00;100293.55;5140676;56;21585;-79
2021/09/18 07:22:29;;;;;;;15.50;7.23;;;;;;;13.96;100.00;100291.59;5141828;56;22085;-78
2021/09/18 07:27:35;;;;;;;8.00;7.10;;;;;;;13.99;100.00;100301.94;5141775;56;21157;-79
2021/09/18 07:32:41;;;;;;;9.80;6.67;;;;;;;14.04;100.00;100306.83;5140544;56;21196;-80
2021/09/18 07:37:47;;;;;;;5.50;3.87;;;;;;;14.12;100.00;100306.08;5142414;56;21715;-78
2021/09/18 07:42:53;;;;;;;4.37;3.93;;;;;;;14.18;100.00;100314.32;5141524;56;21149;-85
2021/09/18 07:47:59;;;;;;;3.40;3.20;;;;;;;14.28;100.00;100319.58;5141805;56;21536;-83
2021/09/18 07:53:06;;;;;;;3.93;3.60;;;;;;;14.32;100.00;100320.97;5151319;56;21174;-85
2021/09/18 07:58:12;;;;;;;3.97;3.57;;;;;;;14.37;100.00;100328.83;5162731;56;21497;-87
2021/09/18 08:03:19;;;;;;;6.60;3.17;;;;;;;14.37;100.00;100331.98;5161904;56;21194;-87
2021/09/18 08:08:25;;;;;;;1.83;1.77;;;;;;;14.38;100.00;100342.48;5150892;56;21523;-86
2021/09/18 08:13:31;;;;;;;1.90;1.30;;;;;;;14.43;100.00;100336.76;5150959;56;21746;-86
2021/09/18 08:18:37;;;;;;;1.40;1.10;;;;;;;14.48;100.00;100337.66;5150847;56;21174;-83
2021/09/18 08:23:42;;;;;;;1.43;1.30;;;;;;;14.42;100.00;100341.24;5151572;56;21245;-84
2021/09/18 08:28:48;;;;;;;2.00;1.90;;;;;;;14.41;100.00;100354.69;5151713;56;21201;-83
2021/09/18 08:33:56;;;;;;;0.93;0.93;;;;;;;14.48;100.00;100357.12;5154698;56;21130;-83
2021/09/18 08:39:03;;;;;;;1.50;1.50;;;;;;;14.59;100.00;100366.72;5154549;56;21227;-84
2021/09/18 08:44:08;;;;;;;1.53;1.30;;;;;;;14.63;100.00;100366.28;5125843;56;21202;-85
2021/09/18 08:49:14;;;;;;;1.40;1.30;;;;;;;14.67;100.00;100370.30;5154279;56;21115;-87
2021/09/18 08:54:20;;;;;;;6.90;2.00;;;;;;;14.71;100.00;100373.02;5166646;56;21174;-85
2021/09/18 08:59:26;;;;;;;3.53;1.70;;;;;;;14.66;99.68;100379.30;5181870;56;21197;-84
2021/09/18 09:04:34;;;;;;;1.30;1.23;;;;;;;14.70;100.00;100384.65;5186768;56;21514;-83
2021/09/18 09:09:59;;;;;;;3.20;1.33;;;;;;;14.72;100.00;100374.70;5125678;56;21166;-84
2021/09/18 09:15:09;;;;;;;1.20;1.20;;;;;;;14.83;100.00;100389.62;5149001;56;21524;-82
2021/09/18 09:20:24;;;;;;;1.10;1.10;;;;;;;14.88;99.98;100395.34;5096072;56;21634;-81
2021/09/18 09:25:36;;;;;;;0.77;0.73;;;;;;;14.94;99.47;100392.58;5095297;56;21710;-80
2021/09/18 09:30:42;;;;;;;3.47;0.83;;;;;;;14.89;98.02;100403.67;5117293;56;21233;-83
2021/09/18 09:35:48;;;;;;;2.90;1.80;;;;;;;14.81;97.41;100404.93;5124047;56;21508;-81
2021/09/18 09:40:54;;;;;;;7.17;2.13;;;;;;;14.72;97.59;100412.45;5133857;56;21488;-82
2021/09/18 09:46:00;;;;;;;5.13;1.20;;;;;;;14.72;98.23;100413.30;5152889;56;21338;-82
2021/09/18 09:51:07;;;;;;;1.13;1.13;;;;;;;14.79;98.21;100414.89;5078658;57;22573;-85
2021/09/18 09:56:25;;;;;;;1.63;1.50;;;;;;;14.82;97.46;100422.55;5079281;57;21292;-84
2021/09/18 10:01:31;;;;;;;1.07;1.07;;;;;;;14.84;97.23;100425.91;5079359;57;21204;-83
2021/09/18 10:06:37;;;;;;;1.17;1.10;;;;;;;14.79;95.88;100426.87;5135348;56;21564;-84
2021/09/18 10:11:43;;;;;;;3.20;1.03;;;;;;;14.79;96.71;100433.52;5153477;56;21126;-81
2021/09/18 10:16:53;;;;;;;1.30;1.20;;;;;;;14.86;96.94;100431.09;5080724;57;21196;-81
2021/09/18 10:27:27;;;;;;;;;;;;;;;15.06;97.01;100423.34;5083152;57;22029;-84
2021/09/18 10:32:46;;;;;;;1.23;0.80;;;;;;;15.18;96.38;100431.95;5079420;57;20189;-84
2021/09/18 10:37:52;;;;;;;1.20;1.20;;;;;;;15.23;95.74;100439.84;5147156;56;21114;-84
2021/09/18 10:42:57;;;;;;;3.30;1.80;;;;;;;15.20;94.53;100448.13;5199294;56;21229;-81
2021/09/18 10:48:03;;;;;;;0.83;0.83;;;;;;;15.11;94.07;100443.22;5210878;56;21499;-85
2021/09/18 10:53:19;;;;;;;0.80;0.80;;;;;;;15.03;93.87;100446.27;5203330;56;22077;-89
2021/09/18 11:03:47;;;;;;;1.60;1.17;;;;;;;14.96;93.23;100467.84;5324283;55;21433;-82
2021/09/18 11:08:53;;;;;;;0.80;0.80;;;;;;;14.82;93.09;100470.48;5279476;56;21179;-78
2021/09/18 11:14:02;;;;;;;0.93;0.83;;;;;;;14.75;92.65;100473.40;5283058;56;21159;-81
2021/09/18 11:19:12;;;;;;;3.27;1.10;;;;;;;14.73;93.38;100490.84;5256745;55;21480;-79
2021/09/18 11:24:23;;;;;;;0.80;0.80;;;;;;;14.63;92.44;100487.89;5256216;56;21179;-81
2021/09/18 11:29:38;;;;;;;1.40;1.30;;;;;;;14.61;92.13;100498.67;5256989;56;21212;-84
2021/09/18 11:34:50;;;;;;;0.90;0.90;;;;;;;14.53;91.77;100495.88;5253658;56;21174;-82
2021/09/18 11:40:12;;;;;;;1.87;1.05;;;;;;;14.52;92.12;100500.02;5142447;57;21264;-84
2021/09/18 11:45:26;;;;;;;1.53;1.17;;;;;;;14.63;92.08;100502.53;5056849;58;21981;-84
2021/09/18 11:50:38;;;;;;;1.60;1.50;;;;;;;14.67;91.76;100505.22;5051463;58;21180;-82
2021/09/18 11:55:52;;;;;;;1.47;1.37;;;;;;;14.76;91.95;100511.02;5074284;58;21199;-85
2021/09/18 12:01:05;;;;;;;;;;;;;;;14.79;90.47;100514.73;5140259;57;21174;-86
2021/09/18 12:06:15;;;;;;;2.90;2.70;;;;;;;14.77;90.13;100517.53;5181470;57;20149;-84
2021/09/18 12:11:22;;;;;;;7.97;7.27;;;;;;;14.68;89.00;100532.19;5234055;56;21143;-81
2021/09/18 12:16:31;;;;;;;13.83;11.93;;;;;;;14.51;88.46;100539.13;5231490;56;21436;-82
2021/09/18 12:21:41;;;;;;;;;;;;;;;14.28;88.06;100546.55;5104444;56;22458;-83
2021/09/18 12:26:48;;;;;;;2.10;2.00;;;;;;;14.17;88.88;100545.37;5061340;58;20209;-81
2021/09/18 12:31:59;;;;;;;5.77;2.70;;;;;;;14.15;88.60;100543.84;5053864;58;21181;-82
2021/09/18 12:37:10;;;;;;;1.63;1.23;;;;;;;14.14;89.20;100555.45;5053176;58;21596;-81
2021/09/18 12:42:18;;;;;;;1.87;1.77;;;;;;;14.17;88.45;100563.16;5074405;58;21202;-82
2021/09/18 12:47:25;;;;;;;2.77;1.90;;;;;;;14.02;88.24;100560.92;5079154;58;21488;-82
2021/09/18 12:52:32;;;;;;;2.27;2.17;;;;;;;13.98;88.60;100558.67;5001057;58;21138;-83
2021/09/18 12:57:38;;;;;;;1.77;1.67;;;;;;;14.02;88.92;100556.94;5054424;58;21185;-82
2021/09/18 13:02:44;;;;;;;2.00;1.90;;;;;;;14.00;88.06;100562.87;5012916;58;21157;-81
2021/09/18 13:07:59;;;;;;;4.43;2.53;;;;;;;13.93;88.42;100566.22;5194865;56;21172;-82
2021/09/18 13:13:05;;;;;;;3.20;2.27;;;;;;;13.95;88.18;100564.27;5184471;56;21168;-82
2021/09/18 13:18:23;;;;;;;4.40;2.53;;;;;;;13.92;87.23;100560.55;5199197;56;21191;-83
2021/09/18 13:23:29;;;;;;;5.63;2.13;;;;;;;13.83;87.82;100568.04;5023600;58;21148;-83
2021/09/18 13:28:35;;;;;;;2.47;1.87;;;;;;;13.76;87.25;100572.22;5165295;56;21204;-82
2021/09/18 13:33:41;;;;;;;1.63;1.40;;;;;;;13.67;87.32;100573.89;5215811;56;21161;-82
2021/09/18 13:38:46;;;;;;;3.27;1.57;;;;;;;13.60;87.20;100575.41;5194922;56;21197;-82
2021/09/18 13:43:52;;;;;;;2.67;1.90;;;;;;;13.60;87.06;100578.06;5188818;56;21499;-81
2021/09/18 13:48:57;;;;;;;3.40;2.40;;;;;;;13.59;87.42;100581.23;5217402;56;21117;-81
2021/09/18 13:54:03;;;;;;;4.97;2.43;;;;;;;13.59;87.06;100588.38;5034913;59;21184;-81
2021/09/18 13:59:09;;;;;;;6.93;2.50;;;;;;;13.56;86.87;100592.14;5216797;57;21492;-84
2021/09/18 14:04:15;;;;;;;3.90;2.13;;;;;;;13.54;87.11;100596.74;5033763;58;21202;-83
2021/09/18 14:09:21;;;;;;;1.37;1.20;;;;;;;13.54;87.28;100594.09;5196658;56;21135;-82
2021/09/18 14:14:27;;;;;;;1.80;1.70;;;;;;;13.58;87.21;100600.81;5242471;56;21504;-83
2021/09/18 14:19:32;;;;;;;7.43;2.80;;;;;;;13.56;86.96;100596.61;5311160;56;21143;-85
2021/09/18 14:24:38;;;;;;;3.03;1.90;;;;;;;13.47;86.77;100601.39;5312083;56;21148;-81
2021/09/18 14:29:44;;;;;;;3.30;2.30;;;;;;;13.44;86.84;100599.03;5312009;56;21151;-83
2021/09/18 14:34:50;;;;;;;9.87;2.37;;;;;;;13.47;87.08;100604.89;5283028;56;21941;-82
2021/09/18 14:39:56;;;;;;;2.10;2.00;;;;;;;13.50;87.42;100604.62;5071068;58;21151;-83
2021/09/18 14:45:03;;;;;;;4.07;3.40;;;;;;;13.54;87.48;100601.22;5071059;58;21154;-83
2021/09/18 14:50:14;;;;;;;5.23;2.93;;;;;;;13.58;87.42;100602.14;5071435;58;21092;-81
2021/09/18 14:55:27;;;;;;;4.63;4.10;;;;;;;13.57;87.80;100605.78;5162593;56;21157;-79
2021/09/18 15:00:33;;;;;;;7.67;4.33;;;;;;;13.61;87.60;100607.16;5249972;56;21191;-78
2021/09/18 15:05:39;;;;;;;14.97;7.70;;;;;;;13.63;87.73;100609.69;5264029;56;21177;-80
2021/09/18 15:10:45;;;;;;;63.27;18.07;;;;;;;13.65;87.76;100602.42;5274439;56;21138;-79
2021/09/18 15:15:52;;;;;;;18.70;7.83;;;;;;;13.62;87.57;100604.86;5267852;56;21137;-79
2021/09/18 15:20:59;;;;;;;29.30;10.23;;;;;;;13.61;87.72;100611.64;5034653;59;21202;-79
2021/09/18 15:26:05;;;;;;;7.50;4.70;;;;;;;13.61;88.20;100604.99;5180914;57;21204;-82
2021/09/18 15:31:11;;;;;;;10.97;6.43;;;;;;;13.64;88.37;100606.05;5030856;59;21206;-82
2021/09/18 15:36:17;;;;;;;12.03;6.20;;;;;;;13.65;88.23;100613.05;5199355;56;21133;-83
2021/09/18 15:41:23;;;;;;;33.67;14.83;;;;;;;13.67;88.42;100617.75;5034659;59;21113;-84
2021/09/18 15:46:29;;;;;;;35.13;17.37;;;;;;;13.65;88.68;100613.05;5193966;56;21095;-82
2021/09/18 15:51:35;;;;;;;12.13;7.30;;;;;;;13.66;88.84;100616.06;5189900;56;21175;-83
2021/09/18 15:56:41;;;;;;;5.57;4.93;;;;;;;13.67;88.78;100621.25;5189877;56;21242;-82
2021/09/18 16:01:47;;;;;;;14.17;7.20;;;;;;;13.65;88.86;100623.69;5189850;56;21488;-84
2021/09/18 16:06:53;;;;;;;9.10;4.73;;;;;;;13.58;89.02;100622.08;5182727;56;21124;-84
2021/09/18 16:12:00;;;;;;;6.77;5.97;;;;;;;13.58;89.53;100636.69;5177857;56;21170;-84
2021/09/18 16:17:06;;;;;;;10.60;7.00;;;;;;;13.52;89.62;100632.39;5178827;56;21520;-83
2021/09/18 16:22:11;;;;;;;12.73;7.27;;;;;;;13.52;90.00;100631.06;5178906;56;21536;-85
2021/09/18 16:27:17;;;;;;;14.60;8.60;;;;;;;13.45;90.00;100639.20;5179041;56;21183;-84
2021/09/18 16:32:22;;;;;;;14.33;8.70;;;;;;;13.38;90.47;100639.77;5178994;56;21136;-85
2021/09/18 16:37:29;;;;;;;12.37;7.93;;;;;;;13.38;90.54;100648.22;5156078;56;21243;-83
2021/09/18 16:42:35;;;;;;;16.67;10.20;;;;;;;13.39;90.79;100652.56;5145313;57;21257;-83
2021/09/18 16:47:40;;;;;;;15.37;8.93;;;;;;;13.41;90.96;100653.27;5144051;57;21191;-84
2021/09/18 16:52:47;;;;;;;12.37;7.17;;;;;;;13.45;90.86;100657.80;5143412;57;21578;-84
2021/09/18 16:57:52;;;;;;;16.67;7.90;;;;;;;13.46;90.70;100651.03;5145068;57;21171;-84
2021/09/18 17:02:58;;;;;;;8.43;5.83;;;;;;;13.36;90.04;100654.15;5152255;56;21136;-84
2021/09/18 17:08:05;;;;;;;17.57;8.80;;;;;;;13.31;89.85;100655.87;5305650;56;21247;-85
2021/09/18 17:13:12;;;;;;;14.10;7.67;;;;;;;13.30;89.84;100659.98;5305633;56;21105;-84
2021/09/18 17:18:18;;;;;;;16.23;7.77;;;;;;;13.26;89.34;100662.57;5305696;56;21179;-83
2021/09/18 17:23:23;;;;;;;10.37;5.67;;;;;;;13.29;89.27;100666.30;5305795;56;21172;-83
2021/09/18 17:28:29;;;;;;;6.37;4.30;;;;;;;13.28;89.11;100671.25;5305617;56;21242;-81
2021/09/18 17:33:35;;;;;;;9.87;4.63;;;;;;;13.26;88.44;100668.73;5305608;56;21207;-84
2021/09/18 17:38:41;;;;;;;5.47;3.93;;;;;;;13.22;87.74;100677.08;5304905;56;21522;-81
2021/09/18 17:43:47;;;;;;;5.97;4.50;;;;;;;13.17;87.49;100685.44;5304096;56;21257;-84
2021/09/18 17:48:56;;;;;;;9.50;4.60;;;;;;;13.12;87.33;100686.30;5304464;56;21207;-81
2021/09/18 17:54:04;;;;;;;7.33;4.87;;;;;;;13.14;87.19;100696.80;5080421;57;21134;-83
2021/09/18 17:59:09;;;;;;;5.20;3.83;;;;;;;13.13;86.47;100705.73;5079914;58;21624;-81
2021/09/18 18:04:16;;;;;;;4.83;2.53;;;;;;;13.11;86.52;100702.37;5074495;58;21278;-84
2021/09/18 18:09:21;;;;;;;6.77;3.27;;;;;;;13.09;85.24;100705.15;5047813;58;21229;-80
2021/09/18 18:14:27;;;;;;;4.47;3.47;;;;;;;13.04;85.36;100715.31;5049918;58;21187;-82
2021/09/18 18:19:33;;;;;;;6.13;3.47;;;;;;;13.04;85.19;100723.27;5049687;58;21293;-84
2021/09/18 18:24:39;;;;;;;8.43;4.77;;;;;;;13.00;84.46;100727.15;5049318;58;21677;-85
2021/09/18 18:29:45;;;;;;;9.63;5.47;;;;;;;12.99;85.05;100724.14;5047601;58;21123;-83
2021/09/18 18:34:52;;;;;;;6.83;4.20;;;;;;;12.95;84.61;100730.22;4986388;58;21190;-83
2021/09/18 18:39:58;;;;;;;9.70;4.70;;;;;;;12.94;84.73;100727.20;5028305;58;21269;-82
2021/09/18 18:45:06;;;;;;;6.97;4.20;;;;;;;12.86;83.97;100734.11;5049475;58;21636;-82
2021/09/18 18:50:14;;;;;;;8.07;4.70;;;;;;;12.82;83.39;100740.19;5050850;56;22317;-84
2021/09/18 18:55:20;;;;;;;12.87;7.13;;;;;;;12.81;83.91;100742.48;5129221;56;21202;-84
2021/09/18 19:00:26;;;;;;;12.07;5.30;;;;;;;12.81;83.84;100745.61;5129066;56;21190;-81
2021/09/18 19:05:32;;;;;;;10.83;5.17;;;;;;;12.72;82.29;100749.86;5120432;56;21481;-83
2021/09/18 19:10:37;;;;;;;10.27;5.37;;;;;;;12.65;82.00;100760.64;5103586;58;21186;-83
2021/09/18 19:15:44;;;;;;;4.93;3.17;;;;;;;12.62;82.12;100763.53;5103800;58;21139;-83
2021/09/18 19:20:51;;;;;;;5.80;2.50;;;;;;;12.57;81.68;100753.29;5104710;58;21194;-81
2021/09/18 19:25:57;;;;;;;4.30;2.87;;;;;;;12.56;80.87;100754.73;5105358;58;21123;-82
2021/09/18 19:31:03;;;;;;;4.80;3.60;;;;;;;12.52;80.45;100763.46;5105152;58;21843;-82
2021/09/18 19:36:10;;;;;;;3.40;2.53;;;;;;;12.50;80.06;100761.41;5137376;57;21147;-83
2021/09/18 19:41:16;;;;;;;2.30;2.10;;;;;;;12.45;80.07;100766.23;5188884;57;21178;-82
2021/09/18 19:46:22;;;;;;;4.23;2.27;;;;;;;12.50;79.85;100773.34;5190199;57;21202;-83
2021/09/18 19:51:28;;;;;;;3.63;2.50;;;;;;;12.51;79.79;100777.69;5283509;55;21123;-81
2021/09/18 19:56:34;;;;;;;1.60;1.50;;;;;;;12.52;80.14;100762.62;5327407;55;21813;-85
2021/09/18 20:01:40;;;;;;;5.13;3.57;;;;;;;12.57;79.48;100769.69;5327795;55;21198;-85
2021/09/18 20:06:46;;;;;;;4.23;2.90;;;;;;;12.47;79.46;100768.28;5331134;54;21195;-81
2021/09/18 20:11:53;;;;;;;7.43;3.17;;;;;;;12.43;79.17;100772.63;5336346;55;22604;-81
2021/09/18 20:16:59;;;;;;;9.03;4.43;;;;;;;12.38;79.45;100774.80;5336921;55;21171;-81
2021/09/18 20:22:05;;;;;;;12.63;4.30;;;;;;;12.32;79.49;100780.14;5335893;55;21244;-82
2021/09/18 20:27:11;;;;;;;8.43;3.60;;;;;;;12.28;79.63;100777.37;5335629;55;21116;-80
2021/09/18 20:32:17;;;;;;;6.53;4.33;;;;;;;12.24;79.31;100778.09;5335805;55;21150;-81
2021/09/18 20:37:23;;;;;;;9.80;3.87;;;;;;;12.21;79.81;100772.22;5305880;55;21188;-83
2021/09/18 20:42:29;;;;;;;5.83;3.47;;;;;;;12.14;79.31;100771.01;5289826;56;21117;-82
2021/09/18 20:47:35;;;;;;;10.60;4.23;;;;;;;12.08;79.14;100771.48;5289062;56;21183;-81
2021/09/18 20:52:40;;;;;;;8.97;4.10;;;;;;;12.04;79.51;100770.91;5287597;56;21522;-84
2021/09/18 20:57:46;;;;;;;13.07;4.47;;;;;;;11.95;79.20;100771.14;5288411;56;21120;-82
2021/09/18 21:08:15;;;;;;;10.63;4.42;;;;;;;11.93;79.79;100776.20;5290318;56;22575;-84
2021/09/18 21:13:20;;;;;;;10.93;3.67;;;;;;;11.98;79.82;100788.61;5291380;56;21257;-80
2021/09/18 21:18:27;;;;;;;4.67;3.07;;;;;;;11.94;80.06;100782.70;5291701;56;21190;-84
2021/09/18 21:23:32;;;;;;;3.20;2.70;;;;;;;11.89;79.89;100784.05;5291944;56;21175;-84
2021/09/18 21:28:38;;;;;;;4.27;2.57;;;;;;;11.85;80.21;100795.38;5291736;55;21199;-83
2021/09/18 21:33:44;;;;;;;3.20;2.90;;;;;;;11.83;80.09;100794.64;5291625;56;21163;-82
2021/09/18 21:38:50;;;;;;;3.87;2.83;;;;;;;11.79;80.31;100801.13;5230196;55;21229;-84
2021/09/18 21:43:56;;;;;;;5.03;2.63;;;;;;;11.74;80.42;100798.47;5257781;55;21163;-85
2021/09/18 21:49:01;;;;;;;2.97;2.53;;;;;;;11.69;80.58;100797.50;5341097;55;21584;-81
2021/09/18 21:54:07;;;;;;;5.43;2.80;;;;;;;11.69;80.73;100803.27;5340339;55;21143;-84
2021/09/18 21:59:14;;;;;;;4.07;2.43;;;;;;;11.63;80.92;100803.25;5340023;55;21193;-84
2021/09/18 22:04:19;;;;;;;3.07;2.60;;;;;;;11.62;81.12;100806.87;5340165;55;21629;-82
2021/09/18 22:09:27;;;;;;;4.07;3.30;;;;;;;11.64;81.15;100810.25;5337744;54;21189;-81
2021/09/18 22:14:33;;;;;;;5.40;2.80;;;;;;;11.60;81.26;100807.02;5334638;55;21167;-81
2021/09/18 22:19:39;;;;;;;2.77;2.47;;;;;;;11.58;81.22;100804.96;5334733;55;21245;-84
2021/09/18 22:24:45;;;;;;;4.87;3.23;;;;;;;11.58;81.34;100809.41;5335069;55;21198;-84
2021/09/18 22:29:51;;;;;;;4.10;2.80;;;;;;;11.57;81.54;100805.08;5336045;55;21182;-84
2021/09/18 22:34:56;;;;;;;4.03;2.60;;;;;;;11.57;81.81;100805.08;5329350;55;21170;-80
2021/09/18 22:40:02;;;;;;;9.13;3.07;;;;;;;11.54;81.65;100804.83;5289720;56;21172;-84
2021/09/18 22:45:09;;;;;;;4.67;3.23;;;;;;;11.51;81.75;100799.76;5289422;56;21196;-84
2021/09/18 22:50:14;;;;;;;3.67;2.60;;;;;;;11.44;81.87;100801.20;5289858;56;21167;-84
2021/09/18 22:55:20;;;;;;;6.43;3.10;;;;;;;11.44;82.05;100809.63;5289273;56;21580;-80
2021/09/18 23:00:26;;;;;;;4.87;3.23;;;;;;;11.48;82.16;100808.41;5288072;56;21132;-80
2021/09/18 23:05:33;;;;;;;3.57;3.20;;;;;;;11.50;82.23;100808.66;5287587;56;21206;-85
2021/09/18 23:10:39;;;;;;;4.43;3.37;;;;;;;11.48;82.49;100808.41;5236641;56;21257;-83
2021/09/18 23:15:45;;;;;;;7.23;4.33;;;;;;;11.47;82.52;100806.24;5212211;56;21168;-81
2021/09/18 23:20:51;;;;;;;9.97;4.10;;;;;;;11.47;82.40;100812.02;5212468;56;21269;-82
2021/09/18 23:26:02;;;;;;;11.17;3.90;;;;;;;11.48;82.67;100803.11;5212478;56;21180;-82
2021/09/18 23:31:08;;;;;;;10.20;4.00;;;;;;;11.49;82.77;100803.00;5212542;56;21121;-83
2021/09/18 23:36:15;;;;;;;10.60;3.33;;;;;;;11.55;83.18;100805.67;5184244;56;21204;-81
2021/09/18 23:41:20;;;;;;;10.33;2.93;;;;;;;11.53;83.04;100805.78;5142590;57;21518;-81
2021/09/18 23:46:26;;;;;;;4.67;3.60;;;;;;;11.62;82.99;100808.19;5142428;57;22430;-84
2021/09/18 23:51:32;;;;;;;4.90;3.37;;;;;;;11.64;83.21;100808.44;5142481;57;21255;-81
2021/09/18 23:56:38;;;;;;;3.23;2.97;;;;;;;11.67;83.19;100801.22;5108981;57;21200;-82
